sensor_id;sensor_type;location;lat;lon;timestamp;P1;durP1;ratioP1;P2;durP2;ratioP2
68097;SDS011;54886;47.036;15.466;2024-02-23T00:00:03;1.20;;;1.10;;
68097;SDS011;54886;47.036;15.466;2024-02-23T00:02:30;1.35;;;1.08;;
68097;SDS011;54886;47.036;15.466;2024-02-23T00:04:56;0.90;;;0.90;;
68097;SDS011;54886;47.036;15.466;2024-02-23T00:07:22;1.20;;;1.10;;
68097;SDS011;54886;47.036;15.466;2024-02-23T00:09:47;1.10;;;1.10;;
68097;SDS011;54886;47.036;15.466;2024-02-23T00:12:12;1.00;;;1.00;;
68097;SDS011;54886;47.036;15.466;2024-02-23T00:14:39;1.27;;;1.17;;
68097;SDS011;54886;47.036;15.466;2024-02-23T00:17:04;1.10;;;1.10;;
68097;SDS011;54886;47.036;15.466;2024-02-23T00:19:33;1.10;;;1.10;;
68097;SDS011;54886;47.036;15.466;2024-02-23T00:21:58;0.90;;;0.90;;
68097;SDS011;54886;47.036;15.466;2024-02-23T00:24:27;0.85;;;0.85;;
68097;SDS011;54886;47.036;15.466;2024-02-23T00:26:53;1.25;;;1.00;;
68097;SDS011;54886;47.036;15.466;2024-02-23T00:29:19;0.90;;;0.90;;
68097;SDS011;54886;47.036;15.466;2024-02-23T00:31:44;1.15;;;1.10;;
68097;SDS011;54886;47.036;15.466;2024-02-23T00:34:13;1.42;;;1.00;;
68097;SDS011;54886;47.036;15.466;2024-02-23T00:36:39;1.55;;;1.10;;
68097;SDS011;54886;47.036;15.466;2024-02-23T00:39:06;1.00;;;1.00;;
68097;SDS011;54886;47.036;15.466;2024-02-23T00:41:35;2.05;;;1.15;;
68097;SDS011;54886;47.036;15.466;2024-02-23T00:44:01;1.80;;;1.20;;
68097;SDS011;54886;47.036;15.466;2024-02-23T00:46:27;2.00;;;1.15;;
68097;SDS011;54886;47.036;15.466;2024-02-23T00:48:52;1.40;;;1.15;;
68097;SDS011;54886;47.036;15.466;2024-02-23T00:51:18;1.25;;;1.15;;
68097;SDS011;54886;47.036;15.466;2024-02-23T00:53:43;1.20;;;1.10;;
68097;SDS011;54886;47.036;15.466;2024-02-23T00:56:08;0.90;;;0.90;;
68097;SDS011;54886;47.036;15.466;2024-02-23T00:58:34;1.00;;;1.00;;
68097;SDS011;54886;47.036;15.466;2024-02-23T01:01:00;1.80;;;1.08;;
68097;SDS011;54886;47.036;15.466;2024-02-23T01:03:25;1.20;;;1.10;;
68097;SDS011;54886;47.036;15.466;2024-02-23T01:05:50;1.60;;;1.10;;
68097;SDS011;54886;47.036;15.466;2024-02-23T01:08:16;1.30;;;1.20;;
68097;SDS011;54886;47.036;15.466;2024-02-23T01:10:41;1.00;;;1.00;;
68097;SDS011;54886;47.036;15.466;2024-02-23T01:13:07;1.20;;;1.10;;
68097;SDS011;54886;47.036;15.466;2024-02-23T01:15:32;1.17;;;1.10;;
68097;SDS011;54886;47.036;15.466;2024-02-23T01:17:57;2.00;;;1.20;;
68097;SDS011;54886;47.036;15.466;2024-02-23T01:20:23;2.10;;;1.20;;
68097;SDS011;54886;47.036;15.466;2024-02-23T01:22:48;1.15;;;1.15;;
68097;SDS011;54886;47.036;15.466;2024-02-23T01:25:14;1.30;;;1.20;;
68097;SDS011;54886;47.036;15.466;2024-02-23T01:27:40;1.15;;;1.13;;
68097;SDS011;54886;47.036;15.466;2024-02-23T01:30:06;1.35;;;1.20;;
68097;SDS011;54886;47.036;15.466;2024-02-23T01:32:32;1.50;;;1.23;;
68097;SDS011;54886;47.036;15.466;2024-02-23T01:34:57;1.15;;;1.08;;
68097;SDS011;54886;47.036;15.466;2024-02-23T01:37:23;1.30;;;1.20;;
68097;SDS011;54886;47.036;15.466;2024-02-23T01:39:48;1.00;;;1.00;;
68097;SDS011;54886;47.036;15.466;2024-02-23T01:42:14;1.02;;;1.02;;
68097;SDS011;54886;47.036;15.466;2024-02-23T01:44:39;1.10;;;1.10;;
68097;SDS011;54886;47.036;15.466;2024-02-23T01:47:04;1.00;;;1.00;;
68097;SDS011;54886;47.036;15.466;2024-02-23T01:49:30;1.05;;;1.05;;
68097;SDS011;54886;47.036;15.466;2024-02-23T01:51:58;1.10;;;1.02;;
68097;SDS011;54886;47.036;15.466;2024-02-23T01:54:25;1.63;;;1.30;;
68097;SDS011;54886;47.036;15.466;2024-02-23T01:56:51;0.98;;;0.98;;
68097;SDS011;54886;47.036;15.466;2024-02-23T01:59:17;0.95;;;0.95;;
68097;SDS011;54886;47.036;15.466;2024-02-23T02:01:43;2.63;;;1.10;;
68097;SDS011;54886;47.036;15.466;2024-02-23T02:04:09;1.10;;;1.00;;
68097;SDS011;54886;47.036;15.466;2024-02-23T02:06:34;1.00;;;1.00;;
68097;SDS011;54886;47.036;15.466;2024-02-23T02:09:00;1.13;;;1.05;;
68097;SDS011;54886;47.036;15.466;2024-02-23T02:11:26;0.93;;;0.93;;
68097;SDS011;54886;47.036;15.466;2024-02-23T02:13:51;1.00;;;1.00;;
68097;SDS011;54886;47.036;15.466;2024-02-23T02:16:16;0.90;;;0.90;;
68097;SDS011;54886;47.036;15.466;2024-02-23T02:18:42;1.10;;;1.10;;
68097;SDS011;54886;47.036;15.466;2024-02-23T02:21:09;1.00;;;1.00;;
68097;SDS011;54886;47.036;15.466;2024-02-23T02:23:34;1.08;;;1.02;;
68097;SDS011;54886;47.036;15.466;2024-02-23T02:26:02;1.40;;;1.02;;
68097;SDS011;54886;47.036;15.466;2024-02-23T02:28:28;1.00;;;1.00;;
68097;SDS011;54886;47.036;15.466;2024-02-23T02:30:53;1.27;;;1.17;;
68097;SDS011;54886;47.036;15.466;2024-02-23T02:33:19;1.05;;;1.00;;
68097;SDS011;54886;47.036;15.466;2024-02-23T02:35:45;0.93;;;0.90;;
68097;SDS011;54886;47.036;15.466;2024-02-23T02:38:10;1.13;;;1.02;;
68097;SDS011;54886;47.036;15.466;2024-02-23T02:40:36;1.00;;;0.95;;
68097;SDS011;54886;47.036;15.466;2024-02-23T02:43:02;0.98;;;0.98;;
68097;SDS011;54886;47.036;15.466;2024-02-23T02:45:27;1.10;;;1.10;;
68097;SDS011;54886;47.036;15.466;2024-02-23T02:47:53;1.02;;;1.00;;
68097;SDS011;54886;47.036;15.466;2024-02-23T02:50:18;1.20;;;0.90;;
68097;SDS011;54886;47.036;15.466;2024-02-23T02:52:43;0.90;;;0.90;;
68097;SDS011;54886;47.036;15.466;2024-02-23T02:55:09;1.30;;;1.20;;
68097;SDS011;54886;47.036;15.466;2024-02-23T02:57:34;1.10;;;1.10;;
68097;SDS011;54886;47.036;15.466;2024-02-23T03:02:30;1.30;;;1.10;;
68097;SDS011;54886;47.036;15.466;2024-02-23T03:04:56;1.58;;;1.20;;
68097;SDS011;54886;47.036;15.466;2024-02-23T03:07:21;1.77;;;1.20;;
68097;SDS011;54886;47.036;15.466;2024-02-23T03:09:47;1.33;;;1.10;;
68097;SDS011;54886;47.036;15.466;2024-02-23T03:12:13;1.55;;;1.05;;
68097;SDS011;54886;47.036;15.466;2024-02-23T03:14:39;1.48;;;1.20;;
68097;SDS011;54886;47.036;15.466;2024-02-23T03:17:06;1.10;;;1.10;;
68097;SDS011;54886;47.036;15.466;2024-02-23T03:19:32;0.93;;;0.90;;
68097;SDS011;54886;47.036;15.466;2024-02-23T03:21:57;1.10;;;1.10;;
68097;SDS011;54886;47.036;15.466;2024-02-23T03:24:24;1.15;;;1.05;;
68097;SDS011;54886;47.036;15.466;2024-02-23T03:26:49;3.50;;;1.00;;
68097;SDS011;54886;47.036;15.466;2024-02-23T03:29:15;0.93;;;0.80;;
68097;SDS011;54886;47.036;15.466;2024-02-23T03:31:41;1.00;;;1.00;;
68097;SDS011;54886;47.036;15.466;2024-02-23T03:34:06;1.20;;;1.10;;
68097;SDS011;54886;47.036;15.466;2024-02-23T03:36:32;3.33;;;0.90;;
68097;SDS011;54886;47.036;15.466;2024-02-23T03:38:58;1.00;;;1.00;;
68097;SDS011;54886;47.036;15.466;2024-02-23T03:41:24;1.67;;;1.05;;
68097;SDS011;54886;47.036;15.466;2024-02-23T03:43:49;1.13;;;1.00;;
68097;SDS011;54886;47.036;15.466;2024-02-23T03:46:14;1.17;;;1.17;;
68097;SDS011;54886;47.036;15.466;2024-02-23T03:48:41;0.88;;;0.88;;
68097;SDS011;54886;47.036;15.466;2024-02-23T03:51:08;0.82;;;0.82;;
68097;SDS011;54886;47.036;15.466;2024-02-23T03:53:33;2.75;;;1.20;;
68097;SDS011;54886;47.036;15.466;2024-02-23T03:55:59;0.93;;;0.93;;
68097;SDS011;54886;47.036;15.466;2024-02-23T03:58:24;1.48;;;1.00;;
68097;SDS011;54886;47.036;15.466;2024-02-23T04:00:50;0.90;;;0.90;;
68097;SDS011;54886;47.036;15.466;2024-02-23T04:03:16;1.00;;;1.00;;
68097;SDS011;54886;47.036;15.466;2024-02-23T04:05:41;1.65;;;1.20;;
68097;SDS011;54886;47.036;15.466;2024-02-23T04:08:07;2.03;;;1.25;;
68097;SDS011;54886;47.036;15.466;2024-02-23T04:10:32;1.40;;;1.30;;
68097;SDS011;54886;47.036;15.466;2024-02-23T04:12:57;1.25;;;1.17;;
68097;SDS011;54886;47.036;15.466;2024-02-23T04:15:23;1.30;;;1.20;;
68097;SDS011;54886;47.036;15.466;2024-02-23T04:17:49;1.50;;;1.20;;
68097;SDS011;54886;47.036;15.466;2024-02-23T04:20:14;1.40;;;1.30;;
68097;SDS011;54886;47.036;15.466;2024-02-23T04:22:39;2.85;;;1.20;;
68097;SDS011;54886;47.036;15.466;2024-02-23T04:25:05;2.58;;;1.50;;
68097;SDS011;54886;47.036;15.466;2024-02-23T04:27:31;1.50;;;1.40;;
68097;SDS011;54886;47.036;15.466;2024-02-23T04:29:56;1.30;;;1.20;;
68097;SDS011;54886;47.036;15.466;2024-02-23T04:32:22;1.65;;;1.25;;
68097;SDS011;54886;47.036;15.466;2024-02-23T04:34:48;1.38;;;1.30;;
68097;SDS011;54886;47.036;15.466;2024-02-23T04:37:13;3.42;;;2.22;;
68097;SDS011;54886;47.036;15.466;2024-02-23T04:39:39;2.40;;;1.80;;
68097;SDS011;54886;47.036;15.466;2024-02-23T04:42:06;3.05;;;2.30;;
68097;SDS011;54886;47.036;15.466;2024-02-23T04:44:33;4.05;;;2.60;;
68097;SDS011;54886;47.036;15.466;2024-02-23T04:46:59;3.60;;;2.58;;
68097;SDS011;54886;47.036;15.466;2024-02-23T04:49:24;2.80;;;1.90;;
68097;SDS011;54886;47.036;15.466;2024-02-23T04:51:50;2.20;;;1.92;;
68097;SDS011;54886;47.036;15.466;2024-02-23T04:54:15;2.15;;;1.70;;
68097;SDS011;54886;47.036;15.466;2024-02-23T04:56:40;1.83;;;1.70;;
68097;SDS011;54886;47.036;15.466;2024-02-23T04:59:06;3.42;;;1.80;;
68097;SDS011;54886;47.036;15.466;2024-02-23T05:01:34;1.60;;;1.40;;
68097;SDS011;54886;47.036;15.466;2024-02-23T05:04:03;3.97;;;1.63;;
68097;SDS011;54886;47.036;15.466;2024-02-23T05:06:29;3.60;;;1.40;;
68097;SDS011;54886;47.036;15.466;2024-02-23T05:08:55;1.90;;;1.35;;
68097;SDS011;54886;47.036;15.466;2024-02-23T05:11:20;6.07;;;1.50;;
68097;SDS011;54886;47.036;15.466;2024-02-23T05:13:46;3.17;;;1.60;;
68097;SDS011;54886;47.036;15.466;2024-02-23T05:16:13;1.63;;;1.52;;
68097;SDS011;54886;47.036;15.466;2024-02-23T05:18:39;2.70;;;1.98;;
68097;SDS011;54886;47.036;15.466;2024-02-23T05:21:06;6.70;;;2.45;;
68097;SDS011;54886;47.036;15.466;2024-02-23T05:23:31;6.70;;;3.38;;
68097;SDS011;54886;47.036;15.466;2024-02-23T05:25:57;7.95;;;3.85;;
68097;SDS011;54886;47.036;15.466;2024-02-23T05:28:23;7.53;;;3.67;;
68097;SDS011;54886;47.036;15.466;2024-02-23T05:30:48;6.25;;;3.20;;
68097;SDS011;54886;47.036;15.466;2024-02-23T05:33:14;5.55;;;3.10;;
68097;SDS011;54886;47.036;15.466;2024-02-23T05:35:39;9.02;;;3.65;;
68097;SDS011;54886;47.036;15.466;2024-02-23T05:38:04;7.25;;;3.65;;
68097;SDS011;54886;47.036;15.466;2024-02-23T05:40:31;5.97;;;3.42;;
68097;SDS011;54886;47.036;15.466;2024-02-23T05:42:57;6.03;;;3.20;;
68097;SDS011;54886;47.036;15.466;2024-02-23T05:45:23;5.40;;;2.78;;
68097;SDS011;54886;47.036;15.466;2024-02-23T05:47:48;4.53;;;2.47;;
68097;SDS011;54886;47.036;15.466;2024-02-23T05:50:14;4.20;;;2.55;;
68097;SDS011;54886;47.036;15.466;2024-02-23T05:52:39;6.47;;;2.50;;
68097;SDS011;54886;47.036;15.466;2024-02-23T05:55:05;5.70;;;2.50;;
68097;SDS011;54886;47.036;15.466;2024-02-23T05:57:30;4.18;;;2.17;;
68097;SDS011;54886;47.036;15.466;2024-02-23T05:59:56;3.70;;;2.50;;
68097;SDS011;54886;47.036;15.466;2024-02-23T06:02:22;5.07;;;2.38;;
68097;SDS011;54886;47.036;15.466;2024-02-23T06:04:48;4.53;;;2.30;;
68097;SDS011;54886;47.036;15.466;2024-02-23T06:07:13;6.38;;;2.30;;
68097;SDS011;54886;47.036;15.466;2024-02-23T06:09:42;3.83;;;2.33;;
68097;SDS011;54886;47.036;15.466;2024-02-23T06:12:08;3.55;;;2.10;;
68097;SDS011;54886;47.036;15.466;2024-02-23T06:14:33;3.55;;;2.15;;
68097;SDS011;54886;47.036;15.466;2024-02-23T06:16:59;3.65;;;2.40;;
68097;SDS011;54886;47.036;15.466;2024-02-23T06:19:24;4.05;;;2.38;;
68097;SDS011;54886;47.036;15.466;2024-02-23T06:21:50;4.85;;;2.78;;
68097;SDS011;54886;47.036;15.466;2024-02-23T06:24:15;5.45;;;2.72;;
68097;SDS011;54886;47.036;15.466;2024-02-23T06:26:41;4.65;;;2.53;;
68097;SDS011;54886;47.036;15.466;2024-02-23T06:29:07;6.75;;;2.67;;
68097;SDS011;54886;47.036;15.466;2024-02-23T06:31:36;6.60;;;3.42;;
68097;SDS011;54886;47.036;15.466;2024-02-23T06:34:04;7.72;;;3.33;;
68097;SDS011;54886;47.036;15.466;2024-02-23T06:36:30;7.32;;;3.13;;
68097;SDS011;54886;47.036;15.466;2024-02-23T06:38:55;6.93;;;3.40;;
68097;SDS011;54886;47.036;15.466;2024-02-23T06:41:21;5.03;;;2.80;;
68097;SDS011;54886;47.036;15.466;2024-02-23T06:43:46;7.03;;;3.30;;
68097;SDS011;54886;47.036;15.466;2024-02-23T06:46:12;6.65;;;3.10;;
68097;SDS011;54886;47.036;15.466;2024-02-23T06:48:37;7.40;;;3.30;;
68097;SDS011;54886;47.036;15.466;2024-02-23T06:51:04;7.97;;;3.40;;
68097;SDS011;54886;47.036;15.466;2024-02-23T06:53:29;5.72;;;3.03;;
68097;SDS011;54886;47.036;15.466;2024-02-23T06:55:55;6.60;;;3.05;;
68097;SDS011;54886;47.036;15.466;2024-02-23T06:58:21;7.65;;;3.20;;
68097;SDS011;54886;47.036;15.466;2024-02-23T07:00:46;7.55;;;3.50;;
68097;SDS011;54886;47.036;15.466;2024-02-23T07:03:12;5.25;;;3.20;;
68097;SDS011;54886;47.036;15.466;2024-02-23T07:05:39;7.28;;;3.47;;
68097;SDS011;54886;47.036;15.466;2024-02-23T07:08:06;7.22;;;3.30;;
68097;SDS011;54886;47.036;15.466;2024-02-23T07:10:32;7.20;;;3.38;;
68097;SDS011;54886;47.036;15.466;2024-02-23T07:12:57;5.93;;;3.17;;
68097;SDS011;54886;47.036;15.466;2024-02-23T07:15:23;5.60;;;3.08;;
68097;SDS011;54886;47.036;15.466;2024-02-23T07:17:49;6.75;;;3.63;;
68097;SDS011;54886;47.036;15.466;2024-02-23T07:20:15;7.05;;;3.53;;
68097;SDS011;54886;47.036;15.466;2024-02-23T07:22:43;7.75;;;3.80;;
68097;SDS011;54886;47.036;15.466;2024-02-23T07:25:09;6.03;;;3.50;;
68097;SDS011;54886;47.036;15.466;2024-02-23T07:27:35;7.30;;;3.70;;
68097;SDS011;54886;47.036;15.466;2024-02-23T07:30:00;6.50;;;3.88;;
68097;SDS011;54886;47.036;15.466;2024-02-23T07:32:26;7.18;;;3.28;;
68097;SDS011;54886;47.036;15.466;2024-02-23T07:34:52;6.15;;;3.40;;
68097;SDS011;54886;47.036;15.466;2024-02-23T07:37:17;6.93;;;3.40;;
68097;SDS011;54886;47.036;15.466;2024-02-23T07:39:43;6.25;;;3.00;;
68097;SDS011;54886;47.036;15.466;2024-02-23T07:42:08;6.55;;;3.08;;
68097;SDS011;54886;47.036;15.466;2024-02-23T07:44:35;7.17;;;3.30;;
68097;SDS011;54886;47.036;15.466;2024-02-23T07:47:02;7.13;;;3.28;;
68097;SDS011;54886;47.036;15.466;2024-02-23T07:49:28;7.45;;;2.85;;
68097;SDS011;54886;47.036;15.466;2024-02-23T07:51:53;6.30;;;3.03;;
68097;SDS011;54886;47.036;15.466;2024-02-23T07:54:19;5.72;;;3.10;;
68097;SDS011;54886;47.036;15.466;2024-02-23T07:56:44;6.95;;;3.22;;
68097;SDS011;54886;47.036;15.466;2024-02-23T07:59:09;5.68;;;3.53;;
68097;SDS011;54886;47.036;15.466;2024-02-23T08:01:35;7.78;;;3.30;;
68097;SDS011;54886;47.036;15.466;2024-02-23T08:04:00;7.85;;;3.22;;
68097;SDS011;54886;47.036;15.466;2024-02-23T08:06:26;11.02;;;3.92;;
68097;SDS011;54886;47.036;15.466;2024-02-23T08:08:51;8.43;;;3.50;;
68097;SDS011;54886;47.036;15.466;2024-02-23T08:11:18;7.70;;;4.05;;
68097;SDS011;54886;47.036;15.466;2024-02-23T08:13:44;7.63;;;3.90;;
68097;SDS011;54886;47.036;15.466;2024-02-23T08:16:09;8.63;;;4.10;;
68097;SDS011;54886;47.036;15.466;2024-02-23T08:18:35;8.85;;;4.63;;
68097;SDS011;54886;47.036;15.466;2024-02-23T08:21:01;9.15;;;4.22;;
68097;SDS011;54886;47.036;15.466;2024-02-23T08:23:28;8.63;;;4.10;;
68097;SDS011;54886;47.036;15.466;2024-02-23T08:25:54;8.10;;;3.83;;
68097;SDS011;54886;47.036;15.466;2024-02-23T08:28:21;7.03;;;3.80;;
68097;SDS011;54886;47.036;15.466;2024-02-23T08:30:48;7.22;;;3.53;;
68097;SDS011;54886;47.036;15.466;2024-02-23T08:33:13;6.15;;;3.58;;
68097;SDS011;54886;47.036;15.466;2024-02-23T08:35:39;5.78;;;3.58;;
68097;SDS011;54886;47.036;15.466;2024-02-23T08:38:05;6.68;;;3.63;;
68097;SDS011;54886;47.036;15.466;2024-02-23T08:40:30;7.60;;;3.70;;
68097;SDS011;54886;47.036;15.466;2024-02-23T08:42:56;9.00;;;4.38;;
68097;SDS011;54886;47.036;15.466;2024-02-23T08:45:21;8.55;;;4.68;;
68097;SDS011;54886;47.036;15.466;2024-02-23T08:47:47;7.25;;;3.85;;
68097;SDS011;54886;47.036;15.466;2024-02-23T08:50:12;9.73;;;5.05;;
68097;SDS011;54886;47.036;15.466;2024-02-23T08:52:37;11.23;;;8.43;;
68097;SDS011;54886;47.036;15.466;2024-02-23T08:55:03;7.65;;;4.20;;
68097;SDS011;54886;47.036;15.466;2024-02-23T08:57:28;5.43;;;3.20;;
68097;SDS011;54886;47.036;15.466;2024-02-23T08:59:54;4.50;;;2.70;;
68097;SDS011;54886;47.036;15.466;2024-02-23T09:02:22;2.90;;;2.00;;
68097;SDS011;54886;47.036;15.466;2024-02-23T09:04:48;3.50;;;2.20;;
68097;SDS011;54886;47.036;15.466;2024-02-23T09:07:13;3.05;;;2.20;;
68097;SDS011;54886;47.036;15.466;2024-02-23T09:09:39;4.57;;;2.47;;
68097;SDS011;54886;47.036;15.466;2024-02-23T09:12:04;4.90;;;2.20;;
68097;SDS011;54886;47.036;15.466;2024-02-23T09:14:32;3.53;;;2.10;;
68097;SDS011;54886;47.036;15.466;2024-02-23T09:16:58;5.93;;;2.40;;
68097;SDS011;54886;47.036;15.466;2024-02-23T09:19:23;5.72;;;2.53;;
68097;SDS011;54886;47.036;15.466;2024-02-23T09:21:49;7.30;;;2.70;;
68097;SDS011;54886;47.036;15.466;2024-02-23T09:24:14;5.20;;;2.50;;
68097;SDS011;54886;47.036;15.466;2024-02-23T09:26:39;5.05;;;2.42;;
68097;SDS011;54886;47.036;15.466;2024-02-23T09:29:05;3.92;;;2.10;;
68097;SDS011;54886;47.036;15.466;2024-02-23T09:31:31;5.80;;;2.75;;
68097;SDS011;54886;47.036;15.466;2024-02-23T09:33:57;6.95;;;2.78;;
68097;SDS011;54886;47.036;15.466;2024-02-23T09:36:22;5.85;;;2.92;;
68097;SDS011;54886;47.036;15.466;2024-02-23T09:38:48;5.40;;;2.72;;
68097;SDS011;54886;47.036;15.466;2024-02-23T09:41:19;4.80;;;2.72;;
68097;SDS011;54886;47.036;15.466;2024-02-23T09:43:46;5.97;;;2.70;;
68097;SDS011;54886;47.036;15.466;2024-02-23T09:46:13;6.25;;;2.60;;
68097;SDS011;54886;47.036;15.466;2024-02-23T09:48:39;5.30;;;2.17;;
68097;SDS011;54886;47.036;15.466;2024-02-23T09:51:06;3.28;;;2.22;;
68097;SDS011;54886;47.036;15.466;2024-02-23T09:53:33;4.57;;;2.13;;
68097;SDS011;54886;47.036;15.466;2024-02-23T09:56:01;4.97;;;2.30;;
68097;SDS011;54886;47.036;15.466;2024-02-23T09:58:27;3.90;;;1.88;;
68097;SDS011;54886;47.036;15.466;2024-02-23T10:00:55;4.30;;;2.65;;
68097;SDS011;54886;47.036;15.466;2024-02-23T10:03:23;4.03;;;2.53;;
68097;SDS011;54886;47.036;15.466;2024-02-23T10:05:55;5.07;;;2.30;;
68097;SDS011;54886;47.036;15.466;2024-02-23T10:08:21;6.82;;;2.67;;
68097;SDS011;54886;47.036;15.466;2024-02-23T10:10:47;4.18;;;2.63;;
68097;SDS011;54886;47.036;15.466;2024-02-23T10:15:43;3.55;;;2.50;;
68097;SDS011;54886;47.036;15.466;2024-02-23T10:18:08;3.88;;;2.42;;
68097;SDS011;54886;47.036;15.466;2024-02-23T10:20:33;5.70;;;3.60;;
68097;SDS011;54886;47.036;15.466;2024-02-23T10:23:00;7.25;;;3.38;;
68097;SDS011;54886;47.036;15.466;2024-02-23T10:25:25;5.47;;;3.13;;
68097;SDS011;54886;47.036;15.466;2024-02-23T10:27:51;6.47;;;2.80;;
68097;SDS011;54886;47.036;15.466;2024-02-23T10:30:16;6.32;;;2.90;;
68097;SDS011;54886;47.036;15.466;2024-02-23T10:32:42;4.65;;;2.35;;
68097;SDS011;54886;47.036;15.466;2024-02-23T10:35:09;4.70;;;2.67;;
68097;SDS011;54886;47.036;15.466;2024-02-23T10:37:38;5.90;;;2.90;;
68097;SDS011;54886;47.036;15.466;2024-02-23T10:40:03;3.60;;;2.42;;
68097;SDS011;54886;47.036;15.466;2024-02-23T10:42:34;6.15;;;3.40;;
68097;SDS011;54886;47.036;15.466;2024-02-23T10:45:03;20.83;;;12.38;;
68097;SDS011;54886;47.036;15.466;2024-02-23T10:47:30;5.38;;;2.80;;
68097;SDS011;54886;47.036;15.466;2024-02-23T10:49:58;7.43;;;3.00;;
68097;SDS011;54886;47.036;15.466;2024-02-23T10:52:26;5.45;;;2.97;;
68097;SDS011;54886;47.036;15.466;2024-02-23T10:54:52;3.63;;;2.45;;
68097;SDS011;54886;47.036;15.466;2024-02-23T10:57:19;6.40;;;2.78;;
68097;SDS011;54886;47.036;15.466;2024-02-23T10:59:47;5.15;;;2.63;;
68097;SDS011;54886;47.036;15.466;2024-02-23T11:02:14;5.40;;;2.60;;
68097;SDS011;54886;47.036;15.466;2024-02-23T11:04:42;3.92;;;2.63;;
68097;SDS011;54886;47.036;15.466;2024-02-23T11:07:15;4.20;;;2.78;;
68097;SDS011;54886;47.036;15.466;2024-02-23T11:09:41;6.15;;;2.90;;
68097;SDS011;54886;47.036;15.466;2024-02-23T11:12:06;4.93;;;2.85;;
68097;SDS011;54886;47.036;15.466;2024-02-23T11:14:34;5.18;;;2.83;;
68097;SDS011;54886;47.036;15.466;2024-02-23T11:17:01;5.93;;;3.20;;
68097;SDS011;54886;47.036;15.466;2024-02-23T11:19:37;6.60;;;3.13;;
68097;SDS011;54886;47.036;15.466;2024-02-23T11:22:04;8.63;;;3.17;;
68097;SDS011;54886;47.036;15.466;2024-02-23T11:24:34;7.05;;;3.10;;
68097;SDS011;54886;47.036;15.466;2024-02-23T11:26:59;5.10;;;2.92;;
68097;SDS011;54886;47.036;15.466;2024-02-23T11:29:33;4.53;;;2.65;;
68097;SDS011;54886;47.036;15.466;2024-02-23T11:31:59;5.50;;;3.00;;
68097;SDS011;54886;47.036;15.466;2024-02-23T11:34:27;5.60;;;3.20;;
68097;SDS011;54886;47.036;15.466;2024-02-23T11:36:53;5.35;;;3.05;;
68097;SDS011;54886;47.036;15.466;2024-02-23T11:39:19;5.47;;;2.95;;
68097;SDS011;54886;47.036;15.466;2024-02-23T11:41:45;6.72;;;3.50;;
68097;SDS011;54886;47.036;15.466;2024-02-23T11:44:13;6.22;;;3.40;;
68097;SDS011;54886;47.036;15.466;2024-02-23T11:46:39;6.35;;;3.42;;
68097;SDS011;54886;47.036;15.466;2024-02-23T11:49:07;5.97;;;2.78;;
68097;SDS011;54886;47.036;15.466;2024-02-23T11:51:32;4.90;;;2.75;;
68097;SDS011;54886;47.036;15.466;2024-02-23T11:53:58;4.20;;;2.50;;
68097;SDS011;54886;47.036;15.466;2024-02-23T11:56:25;3.92;;;2.20;;
68097;SDS011;54886;47.036;15.466;2024-02-23T11:58:51;4.82;;;2.05;;
68097;SDS011;54886;47.036;15.466;2024-02-23T12:01:16;3.13;;;1.88;;
68097;SDS011;54886;47.036;15.466;2024-02-23T12:03:41;3.67;;;1.75;;
68097;SDS011;54886;47.036;15.466;2024-02-23T12:06:10;4.38;;;2.00;;
68097;SDS011;54886;47.036;15.466;2024-02-23T12:08:35;2.08;;;1.80;;
68097;SDS011;54886;47.036;15.466;2024-02-23T12:11:07;3.55;;;2.08;;
68097;SDS011;54886;47.036;15.466;2024-02-23T12:13:34;3.13;;;1.95;;
68097;SDS011;54886;47.036;15.466;2024-02-23T12:16:00;3.90;;;1.90;;
68097;SDS011;54886;47.036;15.466;2024-02-23T12:18:25;4.40;;;2.10;;
68097;SDS011;54886;47.036;15.466;2024-02-23T12:21:04;2.55;;;1.80;;
68097;SDS011;54886;47.036;15.466;2024-02-23T12:23:37;2.97;;;2.08;;
68097;SDS011;54886;47.036;15.466;2024-02-23T12:26:13;3.75;;;2.20;;
68097;SDS011;54886;47.036;15.466;2024-02-23T12:28:39;3.25;;;2.28;;
68097;SDS011;54886;47.036;15.466;2024-02-23T12:31:06;2.30;;;1.90;;
68097;SDS011;54886;47.036;15.466;2024-02-23T12:33:32;2.60;;;1.90;;
68097;SDS011;54886;47.036;15.466;2024-02-23T12:36:02;4.20;;;2.25;;
68097;SDS011;54886;47.036;15.466;2024-02-23T12:38:29;2.97;;;2.10;;
68097;SDS011;54886;47.036;15.466;2024-02-23T12:40:54;2.58;;;1.90;;
68097;SDS011;54886;47.036;15.466;2024-02-23T12:43:20;4.20;;;2.40;;
68097;SDS011;54886;47.036;15.466;2024-02-23T12:45:48;3.65;;;2.30;;
68097;SDS011;54886;47.036;15.466;2024-02-23T12:48:14;4.20;;;2.30;;
68097;SDS011;54886;47.036;15.466;2024-02-23T12:50:44;3.83;;;2.50;;
68097;SDS011;54886;47.036;15.466;2024-02-23T12:53:11;5.90;;;2.20;;
68097;SDS011;54886;47.036;15.466;2024-02-23T12:55:55;6.30;;;3.00;;
68097;SDS011;54886;47.036;15.466;2024-02-23T12:58:21;7.53;;;4.13;;
68097;SDS011;54886;47.036;15.466;2024-02-23T13:00:46;6.25;;;2.70;;
68097;SDS011;54886;47.036;15.466;2024-02-23T13:03:12;4.60;;;2.53;;
68097;SDS011;54886;47.036;15.466;2024-02-23T13:05:37;6.00;;;2.60;;
68097;SDS011;54886;47.036;15.466;2024-02-23T13:08:02;7.82;;;2.58;;
68097;SDS011;54886;47.036;15.466;2024-02-23T13:10:28;5.05;;;2.60;;
68097;SDS011;54886;47.036;15.466;2024-02-23T13:12:53;5.05;;;2.60;;
68097;SDS011;54886;47.036;15.466;2024-02-23T13:15:19;5.40;;;2.72;;
68097;SDS011;54886;47.036;15.466;2024-02-23T13:17:44;4.15;;;2.55;;
68097;SDS011;54886;47.036;15.466;2024-02-23T13:20:10;4.97;;;2.58;;
68097;SDS011;54886;47.036;15.466;2024-02-23T13:22:37;5.80;;;2.80;;
68097;SDS011;54886;47.036;15.466;2024-02-23T13:25:03;6.90;;;2.75;;
68097;SDS011;54886;47.036;15.466;2024-02-23T13:27:29;4.90;;;2.40;;
68097;SDS011;54886;47.036;15.466;2024-02-23T13:29:54;5.20;;;2.50;;
68097;SDS011;54886;47.036;15.466;2024-02-23T13:32:20;4.95;;;2.78;;
68097;SDS011;54886;47.036;15.466;2024-02-23T13:34:45;5.38;;;2.80;;
68097;SDS011;54886;47.036;15.466;2024-02-23T13:37:11;7.00;;;2.63;;
68097;SDS011;54886;47.036;15.466;2024-02-23T13:39:37;6.82;;;2.95;;
68097;SDS011;54886;47.036;15.466;2024-02-23T13:42:02;4.68;;;2.80;;
68097;SDS011;54886;47.036;15.466;2024-02-23T13:46:56;7.65;;;3.15;;
68097;SDS011;54886;47.036;15.466;2024-02-23T13:49:21;6.32;;;3.00;;
68097;SDS011;54886;47.036;15.466;2024-02-23T13:51:47;7.10;;;3.03;;
68097;SDS011;54886;47.036;15.466;2024-02-23T13:54:12;5.78;;;2.92;;
68097;SDS011;54886;47.036;15.466;2024-02-23T13:56:38;5.75;;;3.17;;
68097;SDS011;54886;47.036;15.466;2024-02-23T13:59:03;6.03;;;3.55;;
68097;SDS011;54886;47.036;15.466;2024-02-23T14:01:29;5.97;;;3.40;;
68097;SDS011;54886;47.036;15.466;2024-02-23T14:03:54;4.97;;;2.97;;
68097;SDS011;54886;47.036;15.466;2024-02-23T14:06:19;6.00;;;3.40;;
68097;SDS011;54886;47.036;15.466;2024-02-23T14:08:45;4.28;;;2.80;;
68097;SDS011;54886;47.036;15.466;2024-02-23T14:11:12;5.97;;;3.20;;
68097;SDS011;54886;47.036;15.466;2024-02-23T14:13:37;6.05;;;2.97;;
68097;SDS011;54886;47.036;15.466;2024-02-23T14:16:03;5.45;;;3.20;;
68097;SDS011;54886;47.036;15.466;2024-02-23T14:18:30;5.65;;;3.15;;
68097;SDS011;54886;47.036;15.466;2024-02-23T14:20:57;6.57;;;3.25;;
68097;SDS011;54886;47.036;15.466;2024-02-23T14:23:23;8.45;;;3.30;;
68097;SDS011;54886;47.036;15.466;2024-02-23T14:25:48;7.25;;;3.10;;
68097;SDS011;54886;47.036;15.466;2024-02-23T14:28:13;6.82;;;3.58;;
68097;SDS011;54886;47.036;15.466;2024-02-23T14:30:39;6.03;;;3.33;;
68097;SDS011;54886;47.036;15.466;2024-02-23T14:33:05;6.57;;;3.40;;